createdAt,value
2022-12-03T00:01:57.972Z,98416.25
2022-12-03T00:04:24.950Z,98404.97
2022-12-03T00:06:51.937Z,98410.88
2022-12-03T00:09:18.935Z,98415.41
2022-12-03T00:11:45.979Z,98412.81
2022-12-03T00:14:13.005Z,98417.72
2022-12-03T00:16:39.960Z,98406.31
2022-12-03T00:19:07.620Z,98413.50
2022-12-03T00:21:34.969Z,98413.72
2022-12-03T00:24:02.009Z,98412.81
2022-12-03T00:26:28.935Z,98411.97
2022-12-03T00:28:56.188Z,98404.34
2022-12-03T00:31:24.043Z,98412.72
2022-12-03T00:33:52.204Z,98409.34
2022-12-03T00:36:19.431Z,98412.88
2022-12-03T00:38:46.482Z,98404.41
2022-12-03T00:41:13.491Z,98407.81
2022-12-03T00:43:40.444Z,98411.47
2022-12-03T00:46:07.510Z,98413.84
2022-12-03T00:48:34.642Z,98417.19
2022-12-03T00:51:01.589Z,98412.81
2022-12-03T00:53:28.673Z,98412.81
2022-12-03T00:55:55.658Z,98416.09
2022-12-03T00:58:23.993Z,98417.66
2022-12-03T01:00:50.996Z,98417.72
2022-12-03T01:03:17.944Z,98421.97
2022-12-03T01:05:44.896Z,98425.13
2022-12-03T01:08:11.919Z,98426.34
2022-12-03T01:10:39.752Z,98423.09
2022-12-03T01:13:06.708Z,98428.16
2022-12-03T01:15:33.723Z,98426.50
2022-12-03T01:18:00.780Z,98431.41
2022-12-03T01:20:28.153Z,98430.66
2022-12-03T01:22:55.093Z,98425.50
2022-12-03T01:25:22.211Z,98434.31
2022-12-03T01:27:50.916Z,98432.69
2022-12-03T01:30:17.923Z,98435.22
2022-12-03T01:32:44.899Z,98434.94
2022-12-03T01:35:11.873Z,98432.50
2022-12-03T01:37:38.862Z,98427.28
2022-12-03T01:40:08.645Z,98419.13
2022-12-03T01:42:40.139Z,98419.00
2022-12-03T01:45:11.944Z,98423.16
2022-12-03T01:47:39.136Z,98419.13
2022-12-03T01:50:18.107Z,98417.16
2022-12-03T01:52:45.747Z,98419.00
2022-12-03T01:55:19.951Z,98430.41
2022-12-03T01:57:51.605Z,98421.69
2022-12-03T02:00:27.328Z,98416.31
2022-12-03T02:02:59.412Z,98417.16
2022-12-03T02:05:30.025Z,98429.38
2022-12-03T02:07:58.350Z,98434.09
2022-12-03T02:10:29.863Z,98425.91
2022-12-03T02:13:02.072Z,98426.06
2022-12-03T02:15:29.354Z,98421.38
2022-12-03T02:17:57.095Z,98419.97
2022-12-03T02:20:24.104Z,98430.16
2022-12-03T02:23:22.431Z,98421.16
2022-12-03T02:25:49.588Z,98432.50
2022-12-03T02:28:16.596Z,98422.53
2022-12-03T02:30:43.590Z,98420.69
2022-12-03T02:33:10.752Z,98426.28
2022-12-03T02:35:38.344Z,98418.16
2022-12-03T02:38:23.367Z,98418.94
2022-12-03T02:40:54.114Z,98416.31
2022-12-03T02:43:22.601Z,98413.72
2022-12-03T02:45:55.854Z,98416.09
2022-12-03T02:48:29.995Z,98416.03
2022-12-03T02:51:03.500Z,98420.06
2022-12-03T02:53:42.351Z,98415.84
2022-12-03T02:56:12.399Z,98425.69
2022-12-03T02:58:41.657Z,98425.63
2022-12-03T03:01:09.404Z,98427.47
2022-12-03T03:03:37.885Z,98426.06
2022-12-03T03:06:06.935Z,98423.94
2022-12-03T03:08:35.571Z,98422.38
2022-12-03T03:11:03.361Z,98426.41
2022-12-03T03:13:32.715Z,98427.63
2022-12-03T03:15:59.969Z,98423.72
2022-12-03T03:18:26.969Z,98425.50
2022-12-03T03:20:53.978Z,98422.66
2022-12-03T03:23:23.933Z,98428.03
2022-12-03T03:26:03.302Z,98433.13
2022-12-03T03:28:31.438Z,98423.78
2022-12-03T03:31:00.822Z,98421.53
2022-12-03T03:33:28.239Z,98413.06
2022-12-03T03:35:55.407Z,98417.47
2022-12-03T03:38:23.977Z,98413.91
2022-12-03T03:40:52.787Z,98418.09
2022-12-03T03:43:24.001Z,98414.97
2022-12-03T03:45:52.594Z,98413.03
2022-12-03T03:48:21.093Z,98413.66
2022-12-03T03:50:49.566Z,98415.31
2022-12-03T03:53:17.784Z,98414.44
2022-12-03T03:55:45.076Z,98409.22
2022-12-03T03:58:12.127Z,98414.53
2022-12-03T04:00:39.306Z,98407.50
2022-12-03T04:03:06.593Z,98412.72
2022-12-03T04:05:34.072Z,98407.22
2022-12-03T04:08:01.130Z,98401.00
2022-12-03T04:10:46.390Z,98400.28
2022-12-03T04:13:13.342Z,98399.38
2022-12-03T04:15:40.361Z,98403.09
2022-12-03T04:18:26.089Z,98392.72
2022-12-03T04:21:13.008Z,98393.59
2022-12-03T04:23:40.162Z,98391.03
2022-12-03T04:26:25.463Z,98397.72
2022-12-03T04:28:52.525Z,98395.47
2022-12-03T04:31:38.201Z,98393.28
2022-12-03T04:34:24.222Z,98387.00
2022-12-03T04:36:51.242Z,98392.06
2022-12-03T04:39:18.200Z,98392.78
2022-12-03T04:41:45.211Z,98391.16
2022-12-03T04:44:30.797Z,98382.81
2022-12-03T04:46:57.779Z,98389.81
2022-12-03T04:49:24.783Z,98393.03
2022-12-03T04:51:51.772Z,98389.44
2022-12-03T04:54:19.180Z,98390.75
2022-12-03T04:56:46.160Z,98395.44
2022-12-03T04:59:16.440Z,98392.13
2022-12-03T05:01:44.369Z,98397.72
2022-12-03T05:04:12.680Z,98394.25
2022-12-03T05:06:39.728Z,98394.91
2022-12-03T05:09:06.835Z,98399.72
2022-12-03T05:11:34.116Z,98392.88
2022-12-03T05:14:01.103Z,98385.22
2022-12-03T05:16:29.373Z,98395.81
2022-12-03T05:18:56.789Z,98388.06
2022-12-03T05:21:24.237Z,98391.91
2022-12-03T05:23:51.447Z,98391.19
2022-12-03T05:26:18.592Z,98391.38
2022-12-03T05:28:45.550Z,98390.38
2022-12-03T05:31:12.844Z,98392.91
2022-12-03T05:33:44.249Z,98384.22
2022-12-03T05:36:11.663Z,98389.66
2022-12-03T05:38:38.823Z,98378.78
2022-12-03T05:41:25.937Z,98372.72
2022-12-03T05:43:52.868Z,98376.31
2022-12-03T05:46:19.935Z,98376.72
2022-12-03T05:48:47.076Z,98376.63
2022-12-03T05:51:14.021Z,98366.09
2022-12-03T05:53:41.001Z,98365.03
2022-12-03T05:56:08.056Z,98362.13
2022-12-03T05:58:35.124Z,98366.50
2022-12-03T06:01:02.327Z,98366.03
2022-12-03T06:03:29.454Z,98355.97
2022-12-03T06:05:56.470Z,98349.38
2022-12-03T06:08:23.414Z,98345.66
2022-12-03T06:10:50.951Z,98358.88
2022-12-03T06:13:17.914Z,98360.88
2022-12-03T06:15:44.926Z,98366.50
2022-12-03T06:18:12.079Z,98373.72
2022-12-03T06:20:39.058Z,98370.47
2022-12-03T06:23:05.984Z,98372.75
2022-12-03T06:25:32.979Z,98371.91
2022-12-03T06:28:00.034Z,98374.53
2022-12-03T06:30:27.039Z,98378.03
2022-12-03T06:32:54.110Z,98369.31
2022-12-03T06:35:21.051Z,98379.75
2022-12-03T06:37:49.258Z,98380.25
2022-12-03T06:40:16.837Z,98384.13
2022-12-03T06:42:44.143Z,98395.56
2022-12-03T06:45:12.169Z,98393.25
2022-12-03T06:47:39.107Z,98393.19
2022-12-03T06:50:08.506Z,98406.22
2022-12-03T06:52:36.109Z,98400.84
2022-12-03T06:55:03.570Z,98407.00
2022-12-03T06:57:30.921Z,98404.88
2022-12-03T06:59:57.914Z,98407.97
2022-12-03T07:02:25.014Z,98398.88
2022-12-03T07:04:52.004Z,98404.03
2022-12-03T07:07:18.929Z,98416.31
2022-12-03T07:09:45.901Z,98411.69
2022-12-03T07:12:12.790Z,98414.13
2022-12-03T07:14:39.798Z,98413.50
2022-12-03T07:17:07.463Z,98419.00
2022-12-03T07:19:34.450Z,98414.75
2022-12-03T07:22:01.528Z,98415.59
2022-12-03T07:24:28.687Z,98402.25
2022-12-03T07:26:55.956Z,98399.66
2022-12-03T07:29:22.886Z,98404.81
2022-12-03T07:31:49.935Z,98399.66
2022-12-03T07:34:16.884Z,98388.06
2022-12-03T07:36:43.862Z,98388.88
2022-12-03T07:39:10.879Z,98388.13
2022-12-03T07:41:37.799Z,98386.06
2022-12-03T07:44:09.264Z,98381.78
2022-12-03T07:46:41.914Z,98379.31
2022-12-03T07:49:09.028Z,98380.16
2022-12-03T07:51:36.005Z,98381.16
2022-12-03T07:54:03.104Z,98374.09
2022-12-03T07:56:30.292Z,98376.59
2022-12-03T07:58:57.201Z,98382.81
2022-12-03T08:01:24.145Z,98383.75
2022-12-03T08:03:51.161Z,98382.41
2022-12-03T08:06:18.243Z,98388.34
2022-12-03T08:08:45.308Z,98396.03
2022-12-03T08:11:15.740Z,98390.97
2022-12-03T08:13:42.777Z,98402.94
2022-12-03T08:16:20.769Z,98395.25
2022-12-03T08:18:49.547Z,98394.41
2022-12-03T08:21:20.705Z,98395.19
2022-12-03T08:23:48.077Z,98406.22
2022-12-03T08:26:24.682Z,98404.25
2022-12-03T08:28:53.361Z,98406.53
2022-12-03T08:31:32.449Z,98398.81
2022-12-03T08:34:17.805Z,98404.03
2022-12-03T08:36:46.390Z,98404.16
2022-12-03T08:39:37.854Z,98404.03
2022-12-03T08:42:23.098Z,98414.31
2022-12-03T08:44:50.036Z,98418.53
2022-12-03T08:47:23.794Z,98419.47
2022-12-03T08:50:01.281Z,98417.59
2022-12-03T08:52:33.981Z,98420.47
2022-12-03T08:55:29.384Z,98423.00
2022-12-03T08:57:56.455Z,98413.06
2022-12-03T09:00:24.707Z,98416.22
2022-12-03T09:02:54.965Z,98410.78
2022-12-03T09:05:27.899Z,98420.69
2022-12-03T09:07:55.386Z,98415.69
2022-12-03T09:10:22.372Z,98415.81
2022-12-03T09:12:49.486Z,98426.75
2022-12-03T09:15:16.976Z,98424.28
2022-12-03T09:17:43.909Z,98421.94
2022-12-03T09:20:11.410Z,98424.34
2022-12-03T09:22:38.352Z,98422.25
2022-12-03T09:25:06.146Z,98424.28
2022-12-03T09:27:33.133Z,98423.63
2022-12-03T09:30:00.149Z,98426.50
2022-12-03T09:32:27.210Z,98423.47
2022-12-03T09:34:54.410Z,98420.84
2022-12-03T09:37:22.234Z,98412.88
2022-12-03T09:39:49.273Z,98413.72
2022-12-03T09:42:16.518Z,98412.66
2022-12-03T09:44:43.974Z,98405.88
2022-12-03T09:47:11.252Z,98398.19
2022-12-03T09:49:40.899Z,98395.38
2022-12-03T09:52:08.258Z,98398.00
2022-12-03T09:54:35.489Z,98385.63
2022-12-03T09:57:04.534Z,98385.16
2022-12-03T09:59:34.712Z,98387.38
2022-12-03T10:02:02.669Z,98378.78
2022-12-03T10:04:30.521Z,98384.63
2022-12-03T10:06:58.987Z,98397.84
2022-12-03T10:09:28.914Z,98389.53
2022-12-03T10:11:57.679Z,98386.91
2022-12-03T10:14:24.995Z,98391.41
2022-12-03T10:16:52.169Z,98391.50
2022-12-03T10:19:25.046Z,98389.81
2022-12-03T10:21:52.355Z,98389.38
2022-12-03T10:24:31.879Z,98396.84
2022-12-03T10:27:05.883Z,98402.84
2022-12-03T10:29:35.709Z,98400.31
2022-12-03T10:32:11.734Z,98397.94
2022-12-03T10:34:41.975Z,98389.94
2022-12-03T10:37:26.783Z,98388.69
2022-12-03T10:39:58.790Z,98393.19
2022-12-03T10:42:35.321Z,98396.66
2022-12-03T10:45:22.491Z,98394.34
2022-12-03T10:48:25.503Z,98378.88
2022-12-03T10:51:05.202Z,98375.06
2022-12-03T10:53:36.691Z,98376.06
2022-12-03T10:56:07.830Z,98366.47
2022-12-03T10:58:37.741Z,98359.28
2022-12-03T11:01:17.494Z,98359.13
2022-12-03T11:03:45.097Z,98357.28
2022-12-03T11:06:18.757Z,98346.66
2022-12-03T11:08:57.147Z,98345.50
2022-12-03T11:11:27.360Z,98343.19
2022-12-03T11:14:02.990Z,98336.78
2022-12-03T11:16:41.826Z,98343.56
2022-12-03T11:19:43.000Z,98334.19
2022-12-03T11:22:10.159Z,98334.75
2022-12-03T11:24:39.840Z,98330.38
2022-12-03T11:27:11.657Z,98329.44
2022-12-03T11:30:02.200Z,98327.47
2022-12-03T11:32:38.364Z,98321.59
2022-12-03T11:35:28.239Z,98324.00
2022-12-03T11:37:55.220Z,98315.56
2022-12-03T11:40:22.024Z,98322.59
2022-12-03T11:42:49.099Z,98325.91
2022-12-03T11:45:35.711Z,98321.06
2022-12-03T11:48:11.641Z,98318.47
2022-12-03T11:50:50.801Z,98325.56
2022-12-03T11:53:22.116Z,98321.75
2022-12-03T11:56:06.229Z,98325.78
2022-12-03T11:58:34.399Z,98314.34
2022-12-03T12:01:04.730Z,98313.44
2022-12-03T12:03:37.184Z,98316.09
2022-12-03T12:06:05.638Z,98306.50
2022-12-03T12:08:35.295Z,98299.63
2022-12-03T12:11:03.951Z,98293.47
2022-12-03T12:13:54.581Z,98290.38
2022-12-03T12:16:51.635Z,98288.84
2022-12-03T12:19:35.112Z,98286.06
2022-12-03T12:22:24.845Z,98287.94
2022-12-03T12:24:54.295Z,98281.72
2022-12-03T12:27:30.657Z,98285.84
2022-12-03T12:30:26.732Z,98273.19
2022-12-03T12:33:23.130Z,98264.56
2022-12-03T12:35:50.932Z,98274.38
2022-12-03T12:38:20.995Z,98268.47
2022-12-03T12:40:50.499Z,98267.59
2022-12-03T12:43:30.808Z,98265.75
2022-12-03T12:46:18.676Z,98259.91
2022-12-03T12:48:48.731Z,98261.59
2022-12-03T12:51:20.572Z,98262.25
2022-12-03T12:53:47.866Z,98273.34
2022-12-03T12:56:43.719Z,98261.75
2022-12-03T12:59:10.630Z,98258.97
2022-12-03T13:01:39.313Z,98257.16
2022-12-03T13:04:20.552Z,98244.41
2022-12-03T13:06:50.296Z,98252.22
2022-12-03T13:09:21.242Z,98246.28
2022-12-03T13:11:59.320Z,98260.25
2022-12-03T13:14:37.269Z,98249.97
2022-12-03T13:17:16.896Z,98248.13
2022-12-03T13:19:49.359Z,98238.88
2022-12-03T13:22:22.188Z,98243.41
2022-12-03T13:24:51.747Z,98230.38
2022-12-03T13:27:19.498Z,98231.16
2022-12-03T13:30:13.157Z,98235.44
2022-12-03T13:32:42.820Z,98237.75
2022-12-03T13:35:27.211Z,98239.56
2022-12-03T13:37:54.243Z,98233.50
2022-12-03T13:40:27.229Z,98231.06
2022-12-03T13:42:55.087Z,98227.47
2022-12-03T13:45:24.687Z,98229.03
2022-12-03T13:47:58.977Z,98228.34
2022-12-03T13:50:44.419Z,98229.13
2022-12-03T13:53:11.330Z,98232.59
2022-12-03T13:55:46.833Z,98239.25
2022-12-03T13:58:13.788Z,98233.34
2022-12-03T14:00:40.830Z,98228.97
2022-12-03T14:03:07.792Z,98228.84
2022-12-03T14:05:35.213Z,98227.94
2022-12-03T14:08:02.746Z,98235.13
2022-12-03T14:10:30.376Z,98235.13
2022-12-03T14:12:58.062Z,98228.97
2022-12-03T14:15:26.384Z,98225.44
2022-12-03T14:17:53.808Z,98228.22
2022-12-03T14:20:20.929Z,98229.13
2022-12-03T14:22:47.981Z,98229.34
2022-12-03T14:25:15.362Z,98231.81
2022-12-03T14:27:42.343Z,98234.72
2022-12-03T14:30:10.069Z,98234.22
2022-12-03T14:32:37.191Z,98241.25
2022-12-03T14:35:09.694Z,98228.72
2022-12-03T14:37:37.383Z,98231.31
2022-12-03T14:40:07.059Z,98239.28
2022-12-03T14:42:34.064Z,98235.84
2022-12-03T14:45:01.406Z,98237.38
2022-12-03T14:47:28.304Z,98239.97
2022-12-03T14:49:55.371Z,98240.53
2022-12-03T14:52:22.629Z,98240.53
2022-12-03T14:54:49.692Z,98249.50
2022-12-03T14:57:16.735Z,98252.44
2022-12-03T14:59:45.106Z,98259.38
2022-12-03T15:02:12.943Z,98253.44
2022-12-03T15:04:41.311Z,98260.31
2022-12-03T15:07:09.130Z,98253.34
2022-12-03T15:09:36.475Z,98254.97
2022-12-03T15:12:04.545Z,98263.56
2022-12-03T15:14:31.486Z,98257.66
2022-12-03T15:16:58.673Z,98249.91
2022-12-03T15:19:26.581Z,98253.00
2022-12-03T15:21:53.972Z,98245.50
2022-12-03T15:24:21.037Z,98245.28
2022-12-03T15:26:49.279Z,98248.94
2022-12-03T15:29:16.635Z,98245.69
2022-12-03T15:31:44.576Z,98253.78
2022-12-03T15:34:12.787Z,98258.44
2022-12-03T15:36:41.936Z,98256.25
2022-12-03T15:39:08.833Z,98251.94
2022-12-03T15:41:36.376Z,98238.97
2022-12-03T15:44:03.328Z,98237.78
2022-12-03T15:46:31.506Z,98234.34
2022-12-03T15:48:59.223Z,98233.00
2022-12-03T15:51:26.213Z,98234.34
2022-12-03T15:53:53.285Z,98245.06
2022-12-03T15:56:20.403Z,98236.47
2022-12-03T15:58:47.373Z,98246.09
2022-12-03T16:01:14.811Z,98246.78
2022-12-03T16:03:41.912Z,98250.38
2022-12-03T16:06:09.632Z,98245.28
2022-12-03T16:08:36.533Z,98248.81
2022-12-03T16:11:05.620Z,98241.59
2022-12-03T16:13:32.577Z,98245.38
2022-12-03T16:15:59.593Z,98239.03
2022-12-03T16:18:26.628Z,98237.69
2022-12-03T16:20:53.611Z,98240.16
2022-12-03T16:23:20.672Z,98236.50
2022-12-03T16:25:47.656Z,98235.09
2022-12-03T16:28:15.052Z,98230.66
2022-12-03T16:30:42.367Z,98229.38
2022-12-03T16:33:09.323Z,98230.84
2022-12-03T16:35:38.571Z,98227.41
2022-12-03T16:38:05.492Z,98232.59
2022-12-03T16:40:32.438Z,98236.28
2022-12-03T16:42:59.380Z,98233.34
2022-12-03T16:45:50.838Z,98229.94
2022-12-03T16:48:18.930Z,98231.56
2022-12-03T16:50:45.975Z,98236.78
2022-12-03T16:53:13.921Z,98239.19
2022-12-03T16:55:41.523Z,98240.84
2022-12-03T16:58:08.916Z,98234.56
2022-12-03T17:00:36.283Z,98241.44
2022-12-03T17:03:03.770Z,98233.06
2022-12-03T17:05:31.252Z,98233.03
2022-12-03T17:07:58.351Z,98236.88
2022-12-03T17:10:25.414Z,98236.50
2022-12-03T17:13:10.000Z,98233.88
2022-12-03T17:15:38.447Z,98230.09
2022-12-03T17:18:06.315Z,98229.66
2022-12-03T17:20:34.512Z,98230.53
2022-12-03T17:23:01.902Z,98218.25
2022-12-03T17:25:29.722Z,98212.41
2022-12-03T17:27:56.720Z,98212.34
2022-12-03T17:30:23.659Z,98215.38
2022-12-03T17:32:50.710Z,98211.91
2022-12-03T17:35:18.405Z,98200.56
2022-12-03T17:37:45.950Z,98196.28
2022-12-03T17:40:15.223Z,98190.84
2022-12-03T17:42:42.709Z,98190.47
2022-12-03T17:45:10.411Z,98195.13
2022-12-03T17:47:37.753Z,98194.19
2022-12-03T17:50:06.282Z,98193.69
2022-12-03T17:52:33.265Z,98194.63
2022-12-03T17:55:24.985Z,98202.19
2022-12-03T17:57:47.286Z,98202.56
2022-12-03T18:00:14.578Z,98197.38
2022-12-03T18:02:42.119Z,98192.22
2022-12-03T18:05:10.216Z,98195.06
2022-12-03T18:07:37.237Z,98204.00
2022-12-03T18:10:05.063Z,98203.31
2022-12-03T18:12:32.160Z,98193.38
2022-12-03T18:14:59.155Z,98188.66
2022-12-03T18:17:26.162Z,98180.41
2022-12-03T18:19:53.443Z,98193.38
2022-12-03T18:22:20.718Z,98195.50
2022-12-03T18:24:51.482Z,98189.13
2022-12-03T18:27:21.339Z,98198.75
2022-12-03T18:29:48.788Z,98192.84
2022-12-03T18:32:28.436Z,98188.63
2022-12-03T18:34:57.384Z,98188.75
2022-12-03T18:37:28.394Z,98190.72
2022-12-03T18:39:56.522Z,98182.06
2022-12-03T18:42:24.053Z,98182.25
2022-12-03T18:44:53.689Z,98181.47
2022-12-03T18:47:28.821Z,98171.28
2022-12-03T18:49:56.561Z,98176.41
2022-12-03T18:52:25.142Z,98166.97
2022-12-03T18:54:52.606Z,98176.50
2022-12-03T18:57:19.570Z,98171.28
2022-12-03T18:59:46.612Z,98168.75
2022-12-03T19:02:53.819Z,98184.59
2022-12-03T19:05:07.463Z,98172.91
2022-12-03T19:07:34.901Z,98176.16
2022-12-03T19:10:02.329Z,98186.47
2022-12-03T19:12:29.851Z,98189.09
2022-12-03T19:14:56.839Z,98184.88
2022-12-03T19:17:23.884Z,98185.94
2022-12-03T19:19:50.814Z,98190.81
2022-12-03T19:22:17.792Z,98181.13
2022-12-03T19:24:44.777Z,98187.31
2022-12-03T19:27:11.975Z,98187.09
2022-12-03T19:29:39.084Z,98183.88
2022-12-03T19:32:06.683Z,98177.53
2022-12-03T19:34:34.382Z,98174.16
2022-12-03T19:37:01.732Z,98173.56
2022-12-03T19:39:29.039Z,98171.88
2022-12-03T19:41:56.452Z,98177.09
2022-12-03T19:44:23.804Z,98172.34
2022-12-03T19:46:51.601Z,98163.41
2022-12-03T19:49:21.227Z,98173.03
2022-12-03T19:51:50.667Z,98178.19
2022-12-03T19:54:18.227Z,98169.25
2022-12-03T19:56:46.244Z,98173.66
2022-12-03T19:59:14.650Z,98170.50
2022-12-03T20:01:43.294Z,98171.16
2022-12-03T20:04:12.020Z,98164.31
2022-12-03T20:06:40.065Z,98168.31
2022-12-03T20:09:12.095Z,98168.69
2022-12-03T20:11:41.096Z,98170.72
2022-12-03T20:14:11.853Z,98159.75
2022-12-03T20:16:39.013Z,98168.41
2022-12-03T20:19:08.432Z,98168.34
2022-12-03T20:21:37.725Z,98170.81
2022-12-03T20:24:06.101Z,98167.16
2022-12-03T20:26:33.584Z,98167.66
2022-12-03T20:29:00.654Z,98165.56
2022-12-03T20:31:30.841Z,98163.63
2022-12-03T20:34:01.533Z,98165.06
2022-12-03T20:36:31.015Z,98160.53
2022-12-03T20:39:01.303Z,98155.00
2022-12-03T20:41:28.841Z,98158.22
2022-12-03T20:43:58.250Z,98149.69
2022-12-03T20:46:29.298Z,98155.97
2022-12-03T20:48:57.554Z,98146.41
2022-12-03T20:51:29.842Z,98148.84
2022-12-03T20:53:59.380Z,98145.28
2022-12-03T20:56:31.343Z,98140.00
2022-12-03T20:59:05.336Z,98138.31
2022-12-03T21:01:32.872Z,98135.72
2022-12-03T21:04:00.275Z,98139.16
2022-12-03T21:06:30.079Z,98137.81
2022-12-03T21:08:59.128Z,98142.81
2022-12-03T21:11:29.847Z,98136.69
2022-12-03T21:13:57.575Z,98143.66
2022-12-03T21:17:06.762Z,98135.56
2022-12-03T21:19:21.000Z,98138.25
2022-12-03T21:21:48.779Z,98119.19
2022-12-03T21:24:15.883Z,98126.94
2022-12-03T21:26:42.975Z,98128.88
2022-12-03T21:29:10.194Z,98123.13
2022-12-03T21:31:38.384Z,98121.38
2022-12-03T21:34:05.692Z,98129.97
2022-12-03T21:36:32.806Z,98129.28
2022-12-03T21:38:59.979Z,98130.00
2022-12-03T21:41:27.172Z,98132.78
2022-12-03T21:43:54.320Z,98142.41
2022-12-03T21:47:09.618Z,98132.00
2022-12-03T21:49:08.630Z,98125.94
2022-12-03T21:51:35.676Z,98114.53
2022-12-03T21:54:03.355Z,98124.03
2022-12-03T21:56:31.845Z,98117.16
2022-12-03T21:58:59.142Z,98118.75
2022-12-03T22:01:26.272Z,98115.09
2022-12-03T22:03:53.444Z,98113.56
2022-12-03T22:06:20.845Z,98107.91
2022-12-03T22:08:48.608Z,98105.28
2022-12-03T22:11:23.184Z,98106.16
2022-12-03T22:13:50.708Z,98108.75
2022-12-03T22:16:21.020Z,98102.94
2022-12-03T22:18:48.922Z,98113.03
2022-12-03T22:21:19.673Z,98118.63
2022-12-03T22:23:47.326Z,98124.66
2022-12-03T22:26:17.783Z,98117.84
2022-12-03T22:28:47.018Z,98115.16
2022-12-03T22:31:14.969Z,98113.25
2022-12-03T22:33:43.522Z,98117.69
2022-12-03T22:36:19.778Z,98122.06
2022-12-03T22:38:47.720Z,98108.13
2022-12-03T22:41:16.706Z,98103.78
2022-12-03T22:43:44.998Z,98107.06
2022-12-03T22:46:13.110Z,98102.78
2022-12-03T22:48:42.719Z,98097.56
2022-12-03T22:51:16.618Z,98088.00
2022-12-03T22:53:43.768Z,98082.84
2022-12-03T22:56:11.084Z,98089.91
2022-12-03T22:58:39.527Z,98092.28
2022-12-03T23:01:07.856Z,98091.59
2022-12-03T23:03:35.220Z,98090.81
2022-12-03T23:06:10.764Z,98080.75
2022-12-03T23:08:37.826Z,98065.97
2022-12-03T23:11:04.906Z,98065.69
2022-12-03T23:13:31.973Z,98066.22
2022-12-03T23:15:58.965Z,98067.00
2022-12-03T23:18:25.882Z,98071.41
2022-12-03T23:20:55.523Z,98061.16
2022-12-03T23:23:26.257Z,98054.47
2022-12-03T23:26:05.283Z,98051.50
2022-12-03T23:28:35.093Z,98059.59
2022-12-03T23:31:02.341Z,98049.50
2022-12-03T23:33:32.958Z,98045.13
2022-12-03T23:36:06.487Z,98061.31
2022-12-03T23:38:33.531Z,98065.13
2022-12-03T23:41:09.030Z,98067.16
2022-12-03T23:43:36.075Z,98064.09
2022-12-03T23:46:06.615Z,98057.53
2022-12-03T23:48:34.325Z,98053.22
2022-12-03T23:51:16.697Z,98046.38
2022-12-03T23:53:44.809Z,98044.50
2022-12-03T23:56:15.860Z,98042.03
2022-12-03T23:58:43.547Z,98037.81
